Time;durP1;ratioP1;P1;durP2;ratioP2;P2;SDS_P1;SDS_P2;PMS_P1;PMS_P2;Temp;Humidity;BMP_temperature;BMP_pressure;BME280_temperature;BME280_humidity;BME280_pressure;Samples;Min_cycle;Max_cycle;Signal;HPM_P1;HPM_P2
2022/11/17 00:04:28;;;;;;;11.30;9.10;;;;;11.40;97165.00;;;;16649354;28;20705;-48
2022/11/17 00:29:10;;;;;;;13.20;9.20;;;;;11.60;97122.00;;;;16615962;28;20700;-48
2022/11/17 00:37:13;;;;;;;10.37;8.40;;;;;11.90;97125.00;;;;16622551;28;20711;-49
2022/11/17 00:45:17;;;;;;;13.50;7.27;;;;;11.90;97119.00;;;;16614815;28;20257;-49
2022/11/17 00:53:19;;;;;;;9.10;8.20;;;;;11.60;97118.00;;;;16613920;28;20261;-50
2022/11/17 01:01:24;;;;;;;9.43;8.50;;;;;11.50;97104.00;;;;16639221;28;20219;-48
2022/11/17 01:09:27;;;;;;;8.80;8.00;;;;;11.10;97096.00;;;;16647213;28;20218;-48
2022/11/17 01:17:31;;;;;;;8.93;8.07;;;;;11.30;97065.00;;;;16645967;28;20231;-48
2022/11/17 01:25:33;;;;;;;8.60;7.37;;;;;11.60;97048.00;;;;16651175;28;20447;-48
2022/11/17 01:33:37;;;;;;;7.97;6.30;;;;;11.90;97030.00;;;;16633163;28;20264;-48
2022/11/17 01:41:39;;;;;;;9.10;6.80;;;;;11.80;97022.00;;;;16626031;22;20295;-48
2022/11/17 01:49:44;;;;;;;8.50;7.70;;;;;11.60;97006.00;;;;16601079;28;20467;-49
2022/11/17 01:57:48;;;;;;;10.10;9.00;;;;;11.20;97003.00;;;;16599076;28;20224;-51
2022/11/17 02:05:57;;;;;;;9.60;8.43;;;;;11.60;96977.00;;;;16595812;28;20574;-49
2022/11/17 02:13:59;;;;;;;8.77;7.53;;;;;11.90;96959.00;;;;16596608;28;20571;-49
2022/11/17 02:22:26;;;;;;;8.23;7.30;;;;;11.50;96936.00;;;;16602267;28;20223;-49
2022/11/17 02:30:37;;;;;;;9.37;6.57;;;;;11.40;96929.00;;;;16605234;28;20619;-48
2022/11/17 02:38:43;;;;;;;11.90;6.90;;;;;11.50;96909.00;;;;16619899;28;20234;-48
2022/11/17 02:46:50;;;;;;;9.30;7.30;;;;;11.50;96884.00;;;;16607770;28;20667;-48
2022/11/17 02:54:52;;;;;;;8.00;6.80;;;;;11.50;96876.00;;;;16609029;28;20210;-49
2022/11/17 03:03:06;;;;;;;5.17;4.77;;;;;11.80;96866.00;;;;16610829;28;20230;-49
2022/11/17 03:11:09;;;;;;;5.57;4.90;;;;;11.90;96887.00;;;;16609307;28;20227;-49
2022/11/17 03:19:18;;;;;;;4.63;4.20;;;;;11.80;96905.00;;;;16605157;28;20728;-49
2022/11/17 03:27:24;;;;;;;5.23;4.17;;;;;12.30;96880.00;;;;16611017;28;20241;-49
2022/11/17 03:35:31;;;;;;;3.67;3.37;;;;;12.60;96872.00;;;;16606660;28;20235;-49
2022/11/17 03:43:34;;;;;;;5.47;3.70;;;;;12.80;96882.00;;;;16611632;28;20241;-48
2022/11/17 03:51:38;;;;;;;5.07;3.93;;;;;12.90;96898.00;;;;16610183;28;20218;-50
2022/11/17 03:59:45;;;;;;;4.90;4.50;;;;;12.50;96876.00;;;;16607476;28;20242;-49
2022/11/17 04:07:49;;;;;;;4.70;4.17;;;;;12.30;96879.00;;;;16610228;28;20232;-49
2022/11/17 04:16:01;;;;;;;5.00;4.53;;;;;12.20;96874.00;;;;16603186;28;20226;-48
2022/11/17 04:24:05;;;;;;;5.37;4.97;;;;;12.20;96865.00;;;;16609392;28;20792;-49
2022/11/17 04:32:08;;;;;;;6.57;5.10;;;;;12.20;96863.00;;;;16599421;28;20621;-49
2022/11/17 04:40:12;;;;;;;4.67;4.27;;;;;12.50;96843.00;;;;16611312;28;20675;-48
2022/11/17 04:48:15;;;;;;;4.70;3.73;;;;;12.70;96837.00;;;;16605574;28;20229;-51
2022/11/17 04:56:19;;;;;;;4.23;3.83;;;;;12.90;96844.00;;;;16601023;28;20222;-49
2022/11/17 05:21:02;;;;;;;6.13;3.63;;;;;13.30;96844.00;;;;16603727;28;20313;-49
2022/11/17 05:29:07;;;;;;;3.60;3.30;;;;;13.20;96863.00;;;;16602449;28;20276;-48
2022/11/17 05:37:10;;;;;;;5.57;4.00;;;;;13.10;96871.00;;;;16616718;28;20290;-49
2022/11/17 05:45:13;;;;;;;5.60;3.73;;;;;13.20;96879.00;;;;16630224;28;20229;-48
2022/11/17 05:53:16;;;;;;;6.67;3.77;;;;;13.30;96876.00;;;;16626380;28;20572;-49
2022/11/17 06:01:20;;;;;;;4.67;3.30;;;;;13.40;96863.00;;;;16624459;28;20237;-49
2022/11/17 06:09:23;;;;;;;6.73;3.60;;;;;13.50;96868.00;;;;16606499;28;20233;-49
2022/11/17 06:17:31;;;;;;;3.90;3.50;;;;;13.60;96862.00;;;;16615192;28;20725;-49
2022/11/17 06:25:33;;;;;;;11.80;10.70;;;;;13.20;96873.00;;;;16582866;28;20301;-48
2022/11/17 06:33:38;;;;;;;4.17;3.60;;;;;13.60;96871.00;;;;16622305;28;20200;-49
2022/11/17 06:41:41;;;;;;;2.70;2.50;;;;;13.50;96865.00;;;;16617752;28;20227;-49
2022/11/17 06:49:44;;;;;;;3.60;2.70;;;;;13.40;96882.00;;;;16608959;28;20230;-49
2022/11/17 06:57:47;;;;;;;4.50;3.57;;;;;13.40;96892.00;;;;16609290;28;20704;-48
2022/11/17 07:05:51;;;;;;;2.57;2.37;;;;;13.40;96891.00;;;;16588527;28;20246;-48
2022/11/17 07:13:53;;;;;;;3.33;2.93;;;;;13.50;96868.00;;;;16605328;28;20199;-49
2022/11/17 07:21:57;;;;;;;5.60;3.50;;;;;13.30;96870.00;;;;16616688;28;20231;-49
2022/11/17 07:30:00;;;;;;;3.27;3.00;;;;;13.40;96866.00;;;;16618354;28;20224;-49
2022/11/17 07:38:04;;;;;;;3.13;2.90;;;;;13.70;96863.00;;;;16605124;28;20777;-49
2022/11/17 07:46:07;;;;;;;3.10;2.30;;;;;14.00;96857.00;;;;16612358;28;20222;-49
2022/11/17 07:54:11;;;;;;;2.97;2.50;;;;;13.90;96866.00;;;;16616540;28;20196;-49
2022/11/17 08:02:14;;;;;;;2.87;2.33;;;;;14.10;96854.00;;;;16587888;28;20791;-49
2022/11/17 08:10:19;;;;;;;3.23;2.40;;;;;14.20;96850.00;;;;16589394;28;20632;-48
2022/11/17 08:18:21;;;;;;;4.33;2.30;;;;;14.60;96865.00;;;;16604704;28;20265;-49
2022/11/17 08:26:25;;;;;;;1.93;1.83;;;;;15.00;96872.00;;;;16584041;28;20301;-49
2022/11/17 08:34:27;;;;;;;2.83;1.23;;;;;15.10;96882.00;;;;16578766;28;20274;-48
2022/11/17 08:42:31;;;;;;;2.40;1.40;;;;;15.00;96859.00;;;;16593094;28;20791;-48
2022/11/17 08:50:34;;;;;;;1.03;0.70;;;;;15.20;96880.00;;;;16590929;28;20279;-48
2022/11/17 08:58:40;;;;;;;1.40;0.97;;;;;15.30;96908.00;;;;16587994;28;20223;-48
2022/11/17 09:06:43;;;;;;;2.87;0.80;;;;;15.40;96893.00;;;;16583077;28;20278;-48
2022/11/17 09:14:47;;;;;;;1.83;1.10;;;;;15.80;96907.00;;;;16584396;28;20307;-49
2022/11/17 09:22:49;;;;;;;1.20;0.80;;;;;15.60;96914.00;;;;16593702;28;20354;-49
2022/11/17 09:30:53;;;;;;;1.33;0.97;;;;;15.90;96909.00;;;;16585007;28;20298;-49
2022/11/17 09:38:56;;;;;;;1.00;0.77;;;;;15.70;96917.00;;;;16583572;28;20329;-49
2022/11/17 09:47:06;;;;;;;1.03;0.50;;;;;16.60;96920.00;;;;16585299;28;20360;-49
2022/11/17 09:55:21;;;;;;;4.03;0.67;;;;;16.50;96927.00;;;;16580900;28;20350;-49
2022/11/17 10:03:28;;;;;;;2.10;1.00;;;;;16.40;96934.00;;;;16584967;28;20227;-49
2022/11/17 10:11:32;;;;;;;3.13;0.70;;;;;16.30;96942.00;;;;16592800;28;20226;-48
2022/11/17 10:19:38;;;;;;;1.07;0.90;;;;;16.40;96941.00;;;;16584898;28;20800;-48
2022/11/17 10:27:53;;;;;;;6.60;1.23;;;;;16.10;96945.00;;;;16574984;28;20301;-48
2022/11/17 10:35:57;;;;;;;2.83;1.10;;;;;17.30;96929.00;;;;16571392;28;20245;-49
2022/11/17 10:44:02;;;;;;;1.87;0.90;;;;;17.00;96924.00;;;;16585518;28;20264;-48
2022/11/17 10:52:15;;;;;;;3.60;1.20;;;;;17.40;96932.00;;;;16595049;28;20268;-49
2022/11/17 11:00:33;;;;;;;3.90;1.27;;;;;17.10;96932.00;;;;16589160;28;20228;-49
2022/11/17 11:08:46;;;;;;;5.20;1.60;;;;;16.80;96922.00;;;;16599819;28;20610;-49
2022/11/17 11:16:50;;;;;;;2.77;1.23;;;;;18.60;96919.00;;;;16607179;28;20248;-49
2022/11/17 11:24:58;;;;;;;3.07;1.33;;;;;17.00;96927.00;;;;16591852;28;20245;-48
2022/11/17 11:33:12;;;;;;;2.53;1.27;;;;;17.10;96916.00;;;;16605132;28;20256;-49
2022/11/17 11:41:34;;;;;;;3.87;1.57;;;;;17.30;96932.00;;;;16606240;28;20263;-48
2022/11/17 11:49:42;;;;;;;6.03;1.70;;;;;16.30;96936.00;;;;16598238;28;20227;-50
2022/11/17 11:57:49;;;;;;;4.97;1.40;;;;;16.60;96946.00;;;;16612976;28;20582;-49
2022/11/17 12:06:38;;;;;;;3.00;1.57;;;;;16.80;96942.00;;;;16620189;28;20230;-49
2022/11/17 12:14:24;;;;;;;7.43;2.83;;;;;17.60;96946.00;;;;16611101;28;20345;-50
2022/11/17 12:22:49;;;;;;;4.60;1.60;;;;;17.90;96922.00;;;;16614033;28;20237;-49
2022/11/17 12:30:55;;;;;;;4.57;1.60;;;;;17.30;96946.00;;;;16627816;28;20227;-49
2022/11/17 12:38:58;;;;;;;6.40;1.63;;;;;17.10;96936.00;;;;16626533;28;20632;-49
2022/11/17 12:47:11;;;;;;;3.10;1.60;;;;;17.30;96932.00;;;;16628717;28;20227;-49
2022/11/17 12:55:17;;;;;;;3.10;1.43;;;;;18.60;96923.00;;;;16631576;28;20206;-49
2022/11/17 13:03:27;;;;;;;4.67;1.30;;;;;18.70;96923.00;;;;16623085;28;20301;-49
2022/11/17 13:11:30;;;;;;;2.90;1.73;;;;;20.00;96931.00;;;;16604429;28;20362;-49
2022/11/17 13:19:38;;;;;;;2.50;1.40;;;;;18.40;96928.00;;;;16635648;28;20222;-49
2022/11/17 13:27:44;;;;;;;4.23;1.77;;;;;18.10;96924.00;;;;16637272;28;20250;-49
2022/11/17 13:35:50;;;;;;;3.93;1.50;;;;;18.50;96942.00;;;;16632309;28;20750;-49
2022/11/17 13:43:53;;;;;;;5.50;1.87;;;;;17.20;96957.00;;;;16600903;28;20231;-48
2022/11/17 13:51:57;;;;;;;5.33;2.43;;;;;17.80;96943.00;;;;16607333;28;20289;-49
2022/11/17 14:00:00;;;;;;;5.83;1.60;;;;;18.30;96944.00;;;;16605012;28;20326;-48
2022/11/17 14:08:21;;;;;;;4.23;2.03;;;;;17.70;96942.00;;;;16595947;28;20357;-49
2022/11/17 14:16:26;;;;;;;5.00;2.20;;;;;18.50;96931.00;;;;16619072;28;20653;-49
2022/11/17 14:24:30;;;;;;;6.97;2.30;;;;;19.10;96941.00;;;;16632197;28;20300;-48
2022/11/17 14:32:33;;;;;;;4.27;2.20;;;;;17.60;96933.00;;;;16630229;28;20672;-49
2022/11/17 14:40:37;;;;;;;5.33;2.60;;;;;18.10;96925.00;;;;16625875;28;20302;-49
2022/11/17 14:48:40;;;;;;;8.93;3.23;;;;;18.00;96927.00;;;;16632912;28;20230;-49
2022/11/17 14:56:44;;;;;;;6.70;2.67;;;;;18.20;96912.00;;;;16647785;28;20725;-49
2022/11/17 15:04:46;;;;;;;8.20;3.50;;;;;18.20;96918.00;;;;16631755;28;20227;-49
2022/11/17 15:12:51;;;;;;;8.53;2.60;;;;;17.90;96921.00;;;;16641675;28;20216;-49
2022/11/17 15:21:00;;;;;;;8.40;2.50;;;;;17.10;96935.00;;;;16641070;28;20229;-50
2022/11/17 15:29:04;;;;;;;14.10;6.97;;;;;16.90;96916.00;;;;16615516;28;20226;-50
2022/11/17 15:37:07;;;;;;;5.40;2.63;;;;;16.00;96922.00;;;;16610756;28;20584;-49
2022/11/17 15:45:11;;;;;;;14.13;5.90;;;;;15.70;96914.00;;;;16602036;28;20651;-49
2022/11/17 15:53:14;;;;;;;19.17;10.20;;;;;14.90;96923.00;;;;16610966;28;20236;-48
2022/11/17 16:01:25;;;;;;;14.70;7.37;;;;;14.00;96928.00;;;;16609069;28;20725;-48
2022/11/17 16:09:27;;;;;;;14.90;4.67;;;;;13.60;96927.00;;;;16617717;28;20233;-47
2022/11/17 16:17:31;;;;;;;11.43;6.40;;;;;13.00;96931.00;;;;16627205;28;20855;-48
2022/11/17 16:25:34;;;;;;;17.83;13.67;;;;;13.70;96926.00;;;;16627858;28;20230;-48
2022/11/17 16:33:38;;;;;;;13.93;6.20;;;;;12.70;96944.00;;;;16617664;28;20210;-48
2022/11/17 16:41:41;;;;;;;9.73;5.20;;;;;12.30;96944.00;;;;16606843;28;20225;-49
2022/11/17 16:49:45;;;;;;;12.63;6.33;;;;;12.80;96934.00;;;;16598792;28;20227;-48
2022/11/17 16:57:48;;;;;;;28.73;12.30;;;;;13.00;96939.00;;;;16614038;28;20694;-48
2022/11/17 17:05:52;;;;;;;142.63;53.13;;;;;19.20;96915.00;;;;16575805;28;20246;-48
2022/11/17 17:13:55;;;;;;;35.70;16.80;;;;;20.90;96892.00;;;;16579423;28;20559;-50
2022/11/17 17:21:59;;;;;;;12.07;7.60;;;;;14.70;96915.00;;;;16593026;28;20936;-49
2022/11/17 17:30:02;;;;;;;22.30;13.13;;;;;13.60;96942.00;;;;16582513;28;20223;-49
2022/11/17 17:38:05;;;;;;;9.23;4.50;;;;;12.40;96971.00;;;;16592856;28;20235;-48
2022/11/17 17:46:10;;;;;;;6.27;4.60;;;;;12.40;96979.00;;;;16580877;28;20275;-48
2022/11/17 17:54:17;;;;;;;8.00;5.90;;;;;12.50;96969.00;;;;16581566;28;20198;-48
2022/11/17 18:02:19;;;;;;;16.33;5.90;;;;;12.50;96959.00;;;;16589115;28;20233;-49
2022/11/17 18:10:23;;;;;;;8.63;5.10;;;;;12.60;96963.00;;;;16566903;28;20243;-49
2022/11/17 18:18:26;;;;;;;12.23;7.60;;;;;12.60;96960.00;;;;16573514;28;20219;-49
2022/11/17 18:26:32;;;;;;;9.50;6.53;;;;;12.80;96964.00;;;;16587821;28;20288;-48
2022/11/17 18:34:34;;;;;;;10.37;6.50;;;;;13.00;96961.00;;;;16617696;28;20213;-48
2022/11/17 18:42:38;;;;;;;33.70;24.70;;;;;13.20;96965.00;;;;16618583;28;20235;-49
2022/11/17 18:50:44;;;;;;;23.10;14.77;;;;;13.00;96968.00;;;;16602416;28;20284;-49
2022/11/17 18:58:48;;;;;;;10.13;7.43;;;;;13.70;96972.00;;;;16603411;28;20813;-49
2022/11/17 19:06:50;;;;;;;11.90;5.43;;;;;14.40;96979.00;;;;16617453;28;20231;-49
2022/11/17 19:14:54;;;;;;;6.50;4.60;;;;;14.80;96986.00;;;;16648663;28;20198;-49
2022/11/17 19:22:57;;;;;;;11.50;5.70;;;;;15.10;96984.00;;;;16631570;28;20314;-49
2022/11/17 19:31:05;;;;;;;7.80;2.80;;;;;15.20;96993.00;;;;16637530;28;20685;-48
2022/11/17 19:39:07;;;;;;;6.20;4.50;;;;;15.10;96996.00;;;;16638672;28;20234;-49
2022/11/17 19:47:11;;;;;;;3.33;2.17;;;;;15.00;97014.00;;;;16628540;28;20229;-48
2022/11/17 19:55:14;;;;;;;2.70;1.50;;;;;14.40;97038.00;;;;16621416;28;20213;-49
2022/11/17 20:03:18;;;;;;;1.13;0.90;;;;;13.50;97065.00;;;;16638302;28;20250;-48
2022/11/17 20:11:22;;;;;;;1.50;1.27;;;;;13.10;97086.00;;;;16622710;28;20244;-49
2022/11/17 20:19:26;;;;;;;1.60;1.20;;;;;12.70;97085.00;;;;16631117;28;20253;-49
2022/11/17 20:27:29;;;;;;;1.43;1.00;;;;;12.80;97087.00;;;;16639190;28;20241;-49
2022/11/17 20:35:34;;;;;;;7.83;7.00;;;;;13.50;97083.00;;;;16633954;28;20729;-48
2022/11/17 20:43:37;;;;;;;1.73;1.20;;;;;14.20;97094.00;;;;16632624;28;20323;-49
2022/11/17 20:51:41;;;;;;;3.67;2.33;;;;;13.50;97123.00;;;;16629447;28;20238;-49
2022/11/17 20:59:44;;;;;;;1.80;1.40;;;;;13.00;97135.00;;;;16636221;28;20752;-49
2022/11/17 21:07:48;;;;;;;2.20;1.33;;;;;13.90;97133.00;;;;16639548;28;20229;-47
2022/11/17 21:16:02;;;;;;;1.90;1.10;;;;;14.00;97140.00;;;;16639875;28;20222;-47
2022/11/17 21:24:08;;;;;;;1.70;0.87;;;;;13.20;97138.00;;;;16637813;28;20222;-47
2022/11/17 21:32:11;;;;;;;1.17;0.90;;;;;13.80;97128.00;;;;16639895;28;20396;-48
2022/11/17 21:40:15;;;;;;;18.50;15.23;;;;;13.90;97159.00;;;;16621059;28;20315;-47
2022/11/17 21:48:18;;;;;;;1.60;0.87;;;;;13.30;97159.00;;;;16587674;28;20238;-47
2022/11/17 21:56:25;;;;;;;3.20;1.27;;;;;13.00;97174.00;;;;16594174;28;20233;-47
2022/11/17 22:04:27;;;;;;;1.27;1.17;;;;;13.20;97180.00;;;;16590060;28;20223;-46
2022/11/17 22:12:31;;;;;;;3.33;1.70;;;;;13.50;97183.00;;;;16579606;28;20636;-46
2022/11/17 22:20:34;;;;;;;1.70;1.30;;;;;12.80;97164.00;;;;16581529;28;20234;-47
2022/11/17 22:28:38;;;;;;;2.70;2.03;;;;;12.50;97144.00;;;;16580168;28;20229;-46
2022/11/17 22:36:41;;;;;;;1.30;1.20;;;;;12.30;97155.00;;;;16582486;28;20227;-46
2022/11/17 22:44:45;;;;;;;1.73;0.70;;;;;12.30;97115.00;;;;16593486;28;20434;-47
2022/11/17 22:52:48;;;;;;;1.13;0.67;;;;;12.40;97125.00;;;;16593059;28;20717;-47
2022/11/17 23:00:52;;;;;;;1.27;0.70;;;;;12.10;97117.00;;;;16587314;28;20235;-47
2022/11/17 23:08:56;;;;;;;0.63;0.63;;;;;12.00;97124.00;;;;16596382;28;20715;-47
2022/11/17 23:17:00;;;;;;;2.67;2.20;;;;;12.30;97112.00;;;;16591080;28;20359;-48
2022/11/17 23:25:03;;;;;;;5.80;3.20;;;;;12.40;97132.00;;;;16588629;28;20228;-47
2022/11/17 23:33:07;;;;;;;2.43;2.00;;;;;12.40;97125.00;;;;16582557;28;20205;-47
2022/11/17 23:41:11;;;;;;;2.53;1.60;;;;;12.30;97133.00;;;;16590448;28;20238;-48
2022/11/17 23:49:15;;;;;;;6.70;2.30;;;;;12.70;97123.00;;;;16592288;28;20597;-46
2022/11/17 23:57:18;;;;;;;2.27;1.53;;;;;12.70;97113.00;;;;16584028;28;20222;-47
